createdAt,value
2022-08-01T00:00:37.728Z,2.90
2022-08-01T00:03:05.154Z,2.90
2022-08-01T00:05:32.746Z,2.78
2022-08-01T00:08:00.302Z,2.92
2022-08-01T00:10:28.431Z,2.40
2022-08-01T00:12:55.427Z,3.22
2022-08-01T00:15:22.429Z,2.30
2022-08-01T00:17:49.431Z,2.70
2022-08-01T00:20:16.746Z,2.83
2022-08-01T00:22:43.768Z,2.72
2022-08-01T00:25:10.888Z,2.65
2022-08-01T00:27:38.115Z,3.25
2022-08-01T00:30:13.197Z,3.05
2022-08-01T00:32:43.520Z,2.60
2022-08-01T00:35:11.509Z,3.30
2022-08-01T00:37:38.567Z,2.72
2022-08-01T00:40:07.112Z,2.45
2022-08-01T00:42:34.259Z,2.47
2022-08-01T00:45:01.283Z,2.83
2022-08-01T00:47:28.249Z,2.75
2022-08-01T00:49:55.264Z,2.75
2022-08-01T00:52:22.407Z,3.00
2022-08-01T00:54:49.491Z,2.58
2022-08-01T00:57:16.796Z,3.13
2022-08-01T00:59:49.830Z,3.40
2022-08-01T01:02:17.188Z,2.80
2022-08-01T01:04:44.654Z,3.20
2022-08-01T01:07:33.510Z,2.65
2022-08-01T01:10:33.943Z,2.78
2022-08-01T01:13:11.878Z,2.70
2022-08-01T01:16:05.908Z,2.75
2022-08-01T01:18:45.908Z,3.40
2022-08-01T01:21:18.999Z,3.03
2022-08-01T01:24:41.805Z,3.13
2022-08-01T01:27:48.500Z,2.80
2022-08-01T01:30:16.053Z,2.75
2022-08-01T01:32:50.954Z,2.63
2022-08-01T01:35:33.830Z,2.95
2022-08-01T01:38:15.954Z,2.60
2022-08-01T01:40:45.027Z,3.13
2022-08-01T01:43:13.314Z,3.10
2022-08-01T01:45:41.727Z,3.28
2022-08-01T01:48:13.333Z,3.17
2022-08-01T01:50:42.304Z,2.90
2022-08-01T01:53:15.134Z,2.88
2022-08-01T01:55:49.059Z,2.65
2022-08-01T01:58:18.529Z,2.85
2022-08-01T02:00:47.855Z,3.00
2022-08-01T02:03:20.681Z,3.00
2022-08-01T02:05:49.607Z,2.75
2022-08-01T02:08:18.289Z,3.30
2022-08-01T02:11:07.359Z,3.20
2022-08-01T02:13:37.283Z,3.15
2022-08-01T02:16:05.803Z,3.70
2022-08-01T02:18:34.302Z,3.08
2022-08-01T02:21:04.859Z,2.70
2022-08-01T02:23:34.805Z,3.20
2022-08-01T02:26:11.155Z,3.08
2022-08-01T02:29:03.445Z,3.05
2022-08-01T02:31:36.872Z,3.28
2022-08-01T02:34:10.543Z,3.25
2022-08-01T02:36:39.251Z,3.17
2022-08-01T02:39:12.687Z,3.15
2022-08-01T02:41:51.021Z,2.92
2022-08-01T02:44:29.718Z,2.80
2022-08-01T02:47:03.310Z,3.00
2022-08-01T02:49:46.277Z,3.03
2022-08-01T02:52:16.814Z,3.33
2022-08-01T02:54:47.846Z,3.03
2022-08-01T02:57:15.877Z,2.72
2022-08-01T02:59:46.880Z,2.80
2022-08-01T03:02:17.490Z,3.53
2022-08-01T03:04:45.690Z,3.13
2022-08-01T03:07:15.010Z,3.17
2022-08-01T03:09:46.949Z,3.08
2022-08-01T03:12:30.614Z,2.97
2022-08-01T03:15:00.781Z,3.05
2022-08-01T03:19:59.970Z,3.53
2022-08-01T03:22:30.738Z,3.28
2022-08-01T03:25:00.251Z,2.90
2022-08-01T03:27:27.311Z,3.42
2022-08-01T03:29:57.991Z,3.30
2022-08-01T03:32:28.198Z,3.85
2022-08-01T03:34:55.218Z,3.38
2022-08-01T03:37:59.898Z,3.28
2022-08-01T03:40:46.151Z,3.38
2022-08-01T03:43:27.650Z,3.38
2022-08-01T03:45:57.492Z,2.92
2022-08-01T03:48:30.727Z,3.55
2022-08-01T03:51:00.347Z,3.28
2022-08-01T03:53:33.048Z,3.35
2022-08-01T03:56:03.092Z,3.70
2022-08-01T03:58:31.621Z,3.78
2022-08-01T04:00:59.749Z,3.67
2022-08-01T04:03:27.534Z,3.58
2022-08-01T04:05:54.660Z,3.60
2022-08-01T04:08:21.659Z,3.60
2022-08-01T04:10:56.332Z,3.00
2022-08-01T04:13:23.317Z,3.50
2022-08-01T04:15:50.615Z,3.40
2022-08-01T04:18:17.573Z,3.35
2022-08-01T04:20:44.537Z,3.28
2022-08-01T04:23:12.497Z,3.50
2022-08-01T04:25:43.477Z,3.90
2022-08-01T04:28:17.175Z,3.47
2022-08-01T04:30:47.364Z,3.35
2022-08-01T04:36:03.956Z,2.83
2022-08-01T04:38:37.622Z,3.50
2022-08-01T04:41:08.907Z,3.28
2022-08-01T04:43:40.078Z,3.25
2022-08-01T04:46:08.550Z,2.88
2022-08-01T04:48:40.514Z,2.72
2022-08-01T04:51:16.279Z,3.13
2022-08-01T04:53:44.741Z,3.47
2022-08-01T04:56:13.983Z,2.78
2022-08-01T04:58:45.042Z,3.07
2022-08-01T05:01:12.445Z,3.85
2022-08-01T05:03:39.806Z,3.13
2022-08-01T05:06:07.189Z,3.50
2022-08-01T05:08:34.167Z,3.03
2022-08-01T05:11:02.129Z,2.83
2022-08-01T05:13:29.166Z,3.45
2022-08-01T05:15:56.414Z,2.80
2022-08-01T05:18:28.026Z,3.13
2022-08-01T05:20:56.132Z,3.35
2022-08-01T05:23:38.375Z,3.35
2022-08-01T05:26:15.061Z,3.10
2022-08-01T05:28:43.237Z,3.40
2022-08-01T05:31:10.294Z,2.67
2022-08-01T05:33:37.434Z,3.08
2022-08-01T05:36:04.822Z,2.50
2022-08-01T05:38:32.066Z,2.72
2022-08-01T05:40:59.075Z,2.88
2022-08-01T05:43:28.947Z,3.00
2022-08-01T05:48:25.605Z,2.50
2022-08-01T05:50:56.851Z,2.85
2022-08-01T05:53:25.635Z,2.60
2022-08-01T05:55:52.560Z,2.90
2022-08-01T05:58:19.500Z,2.70
2022-08-01T06:00:46.684Z,2.58
2022-08-01T06:03:15.241Z,2.47
2022-08-01T06:05:42.404Z,2.00
2022-08-01T06:08:09.376Z,2.90
2022-08-01T06:10:36.422Z,2.40
2022-08-01T06:13:04.258Z,2.42
2022-08-01T06:15:33.226Z,2.55
2022-08-01T06:18:00.767Z,2.70
2022-08-01T06:20:27.826Z,2.53
2022-08-01T06:22:55.456Z,2.20
2022-08-01T06:25:23.523Z,2.38
2022-08-01T06:27:50.848Z,2.00
2022-08-01T06:30:17.989Z,1.30
2022-08-01T06:32:44.933Z,1.83
2022-08-01T06:35:12.340Z,1.58
2022-08-01T06:37:39.347Z,1.67
2022-08-01T06:40:16.320Z,1.65
2022-08-01T06:42:44.311Z,1.67
2022-08-01T06:45:14.201Z,1.63
2022-08-01T06:47:42.772Z,1.58
2022-08-01T06:50:11.321Z,1.45
2022-08-01T06:52:39.067Z,2.03
2022-08-01T06:55:06.751Z,1.40
2022-08-01T06:57:33.878Z,1.40
2022-08-01T07:00:12.441Z,1.50
2022-08-01T07:02:39.593Z,1.25
2022-08-01T07:05:06.943Z,1.40
2022-08-01T07:07:33.970Z,1.40
2022-08-01T07:10:01.002Z,1.52
2022-08-01T07:12:27.999Z,1.40
2022-08-01T07:14:55.124Z,1.60
2022-08-01T07:17:22.127Z,1.70
2022-08-01T07:19:49.680Z,2.25
2022-08-01T07:22:23.398Z,1.38
2022-08-01T07:24:54.415Z,1.77
2022-08-01T07:27:25.760Z,1.50
2022-08-01T07:29:53.777Z,1.60
2022-08-01T07:32:21.046Z,1.50
2022-08-01T07:34:48.106Z,1.33
2022-08-01T07:37:15.145Z,1.80
2022-08-01T07:39:42.089Z,1.33
2022-08-01T07:42:09.441Z,1.52
2022-08-01T07:44:37.286Z,1.70
2022-08-01T07:47:05.716Z,1.60
2022-08-01T07:49:36.276Z,1.77
2022-08-01T07:52:06.799Z,1.50
2022-08-01T07:54:34.772Z,1.40
2022-08-01T07:57:03.688Z,1.40
2022-08-01T07:59:31.071Z,1.40
2022-08-01T08:01:58.383Z,1.20
2022-08-01T08:04:25.785Z,1.25
2022-08-01T08:06:54.310Z,1.48
2022-08-01T08:09:21.476Z,1.73
2022-08-01T08:11:48.671Z,1.42
2022-08-01T08:14:19.699Z,1.45
2022-08-01T08:16:47.157Z,1.30
2022-08-01T08:19:14.322Z,1.30
2022-08-01T08:21:41.670Z,1.20
2022-08-01T08:24:26.255Z,1.40
2022-08-01T08:27:04.385Z,1.65
2022-08-01T08:29:33.471Z,1.70
2022-08-01T08:32:01.354Z,1.10
2022-08-01T08:34:29.787Z,1.00
2022-08-01T08:36:59.168Z,1.30
2022-08-01T08:39:27.368Z,1.00
2022-08-01T08:41:54.421Z,0.90
2022-08-01T08:44:22.033Z,1.02
2022-08-01T08:46:52.205Z,1.60
2022-08-01T08:49:27.329Z,0.93
2022-08-01T08:52:04.900Z,1.13
2022-08-01T08:54:33.322Z,1.23
2022-08-01T08:57:02.389Z,0.85
2022-08-01T08:59:30.200Z,1.10
2022-08-01T09:01:59.142Z,1.00
2022-08-01T09:04:27.428Z,1.00
2022-08-01T09:06:55.672Z,0.90
2022-08-01T09:09:23.547Z,1.00
2022-08-01T09:11:57.609Z,1.30
2022-08-01T09:14:36.142Z,1.10
2022-08-01T09:17:13.585Z,1.10
2022-08-01T09:19:54.555Z,0.70
2022-08-01T09:22:26.273Z,1.10
2022-08-01T09:25:09.896Z,1.00
2022-08-01T09:27:44.157Z,0.98
2022-08-01T09:30:19.552Z,1.20
2022-08-01T09:33:18.233Z,1.05
2022-08-01T09:35:57.429Z,1.20
2022-08-01T09:38:30.142Z,0.93
2022-08-01T09:41:01.819Z,1.08
2022-08-01T09:43:32.421Z,1.45
2022-08-01T09:46:05.170Z,1.20
2022-08-01T09:48:33.659Z,1.00
2022-08-01T09:51:07.069Z,1.20
2022-08-01T09:53:51.951Z,1.17
2022-08-01T09:56:22.721Z,1.40
2022-08-01T10:01:51.268Z,1.10
2022-08-01T10:04:21.660Z,1.40
2022-08-01T10:06:56.560Z,1.23
2022-08-01T10:09:35.939Z,1.10
2022-08-01T10:12:15.567Z,1.45
2022-08-01T10:14:51.302Z,1.80
2022-08-01T10:17:20.497Z,1.67
2022-08-01T10:19:51.558Z,1.25
2022-08-01T10:22:24.074Z,1.15
2022-08-01T10:24:57.115Z,1.35
2022-08-01T10:27:38.225Z,1.00
2022-08-01T10:30:21.559Z,1.27
2022-08-01T10:32:55.038Z,1.35
2022-08-01T10:35:45.519Z,1.20
2022-08-01T10:38:10.950Z,1.23
2022-08-01T10:40:45.737Z,1.60
2022-08-01T10:43:21.249Z,1.45
2022-08-01T10:45:50.370Z,1.20
2022-08-01T10:48:32.295Z,1.05
2022-08-01T10:51:03.365Z,1.50
2022-08-01T10:53:43.040Z,1.40
2022-08-01T10:56:13.156Z,1.30
2022-08-01T10:58:45.661Z,1.17
2022-08-01T11:01:27.775Z,1.50
2022-08-01T11:04:16.861Z,1.50
2022-08-01T11:07:20.106Z,1.65
2022-08-01T11:10:19.584Z,1.50
2022-08-01T11:12:50.874Z,1.50
2022-08-01T11:15:29.244Z,1.40
2022-08-01T11:20:36.143Z,1.60
2022-08-01T11:23:10.603Z,1.40
2022-08-01T11:26:06.724Z,1.30
2022-08-01T11:28:30.165Z,1.40
2022-08-01T11:31:13.883Z,1.30
2022-08-01T11:33:46.164Z,1.30
2022-08-01T11:36:14.482Z,1.42
2022-08-01T11:38:48.706Z,1.38
2022-08-01T11:41:37.417Z,1.50
2022-08-01T11:44:26.557Z,1.48
2022-08-01T11:47:09.667Z,1.40
2022-08-01T11:49:49.163Z,1.00
2022-08-01T11:52:33.384Z,1.50
2022-08-01T11:55:04.476Z,1.30
2022-08-01T11:57:38.143Z,1.50
2022-08-01T12:00:17.622Z,1.40
2022-08-01T12:02:56.972Z,1.75
2022-08-01T12:05:27.419Z,1.10
2022-08-01T12:07:56.171Z,1.33
2022-08-01T12:10:33.253Z,2.10
2022-08-01T12:13:04.162Z,1.63
2022-08-01T12:15:37.452Z,1.73
2022-08-01T12:18:08.407Z,1.45
2022-08-01T12:20:56.095Z,1.30
2022-08-01T12:23:24.754Z,1.38
2022-08-01T12:25:54.949Z,1.67
2022-08-01T12:28:22.357Z,1.35
2022-08-01T12:30:50.562Z,1.30
2022-08-01T12:33:21.995Z,1.42
2022-08-01T12:35:49.598Z,0.95
2022-08-01T12:38:24.142Z,1.83
2022-08-01T12:40:53.329Z,1.17
2022-08-01T12:43:28.979Z,1.10
2022-08-01T12:46:01.548Z,1.23
2022-08-01T12:48:31.173Z,1.48
2022-08-01T12:51:03.457Z,1.30
2022-08-01T12:53:40.713Z,1.20
2022-08-01T12:56:11.279Z,1.30
2022-08-01T12:58:38.868Z,1.10
2022-08-01T13:01:12.136Z,1.20
2022-08-01T13:03:40.710Z,1.30
2022-08-01T13:06:17.526Z,1.20
2022-08-01T13:08:46.968Z,1.50
2022-08-01T13:11:17.296Z,1.00
2022-08-01T13:13:48.721Z,1.30
2022-08-01T13:16:27.994Z,1.25
2022-08-01T13:21:54.002Z,1.27
2022-08-01T13:24:30.774Z,1.20
2022-08-01T13:27:05.023Z,1.08
2022-08-01T13:29:45.334Z,1.02
2022-08-01T13:32:29.381Z,1.02
2022-08-01T13:35:08.956Z,1.17
2022-08-01T13:37:38.509Z,1.27
2022-08-01T13:40:08.103Z,1.17
2022-08-01T13:42:35.545Z,1.00
2022-08-01T13:45:04.642Z,1.10
2022-08-01T13:48:03.266Z,1.00
2022-08-01T13:50:29.206Z,1.00
2022-08-01T13:52:56.241Z,0.82
2022-08-01T13:55:23.343Z,1.10
2022-08-01T13:57:51.081Z,1.00
2022-08-01T14:00:18.294Z,1.30
2022-08-01T14:02:45.333Z,0.95
2022-08-01T14:05:12.410Z,1.30
2022-08-01T14:07:39.486Z,1.02
2022-08-01T14:10:18.827Z,1.17
2022-08-01T14:12:51.153Z,1.40
2022-08-01T14:15:38.129Z,1.35
2022-08-01T14:18:07.749Z,0.93
2022-08-01T14:20:38.128Z,1.05
2022-08-01T14:23:08.687Z,1.00
2022-08-01T14:26:03.727Z,0.73
2022-08-01T14:30:53.370Z,0.98
2022-08-01T14:33:20.345Z,1.17
2022-08-01T14:36:06.706Z,1.10
2022-08-01T14:38:34.573Z,1.10
2022-08-01T14:41:04.174Z,1.10
2022-08-01T14:43:33.626Z,1.30
2022-08-01T14:46:02.108Z,0.80
2022-08-01T14:48:29.910Z,1.20
2022-08-01T14:50:58.355Z,0.90
2022-08-01T14:53:25.847Z,1.00
2022-08-01T14:55:52.894Z,0.77
2022-08-01T14:58:19.943Z,1.05
2022-08-01T15:00:47.024Z,0.73
2022-08-01T15:03:14.358Z,0.90
2022-08-01T15:05:41.461Z,0.93
2022-08-01T15:08:08.665Z,0.90
2022-08-01T15:10:35.912Z,0.82
2022-08-01T15:13:03.070Z,1.02
2022-08-01T15:15:30.412Z,1.05
2022-08-01T15:17:57.708Z,0.85
2022-08-01T15:20:26.214Z,1.00
2022-08-01T15:22:53.853Z,1.30
2022-08-01T15:25:23.531Z,1.15
2022-08-01T15:30:17.517Z,0.60
2022-08-01T15:32:51.282Z,0.88
2022-08-01T15:35:18.537Z,1.05
2022-08-01T15:37:45.759Z,0.90
2022-08-01T15:40:13.171Z,1.00
2022-08-01T15:42:40.319Z,0.75
2022-08-01T15:45:20.640Z,1.10
2022-08-01T15:47:56.101Z,0.75
2022-08-01T15:50:23.126Z,0.90
2022-08-01T15:52:50.106Z,1.00
2022-08-01T15:55:17.099Z,1.05
2022-08-01T15:57:44.063Z,1.13
2022-08-01T16:00:11.907Z,1.13
2022-08-01T16:02:38.987Z,1.25
2022-08-01T16:05:06.932Z,0.90
2022-08-01T16:07:34.055Z,0.90
2022-08-01T16:10:01.008Z,0.85
2022-08-01T16:12:28.019Z,0.90
2022-08-01T16:14:56.055Z,0.98
2022-08-01T16:17:23.030Z,1.42
2022-08-01T16:19:50.767Z,1.00
2022-08-01T16:22:18.356Z,0.70
2022-08-01T16:24:45.621Z,1.00
2022-08-01T16:27:12.670Z,1.23
2022-08-01T16:29:39.684Z,1.00
2022-08-01T16:32:09.822Z,0.77
2022-08-01T16:34:53.977Z,1.02
2022-08-01T16:37:21.792Z,1.10
2022-08-01T16:39:48.780Z,0.70
2022-08-01T16:42:15.862Z,0.98
2022-08-01T16:44:44.784Z,0.73
2022-08-01T16:47:11.826Z,1.63
2022-08-01T16:49:39.258Z,0.80
2022-08-01T16:52:07.354Z,0.65
2022-08-01T16:54:34.590Z,0.90
2022-08-01T16:57:08.535Z,0.77
2022-08-01T16:59:41.095Z,1.10
2022-08-01T17:02:10.968Z,0.90
2022-08-01T17:04:38.176Z,0.60
2022-08-01T17:07:05.575Z,0.77
2022-08-01T17:09:32.898Z,0.93
2022-08-01T17:11:59.887Z,0.52
2022-08-01T17:14:28.527Z,0.68
2022-08-01T17:16:55.598Z,0.90
2022-08-01T17:19:32.659Z,0.60
2022-08-01T17:22:00.758Z,0.82
2022-08-01T17:24:27.769Z,0.63
2022-08-01T17:26:54.924Z,0.85
2022-08-01T17:29:22.184Z,0.75
2022-08-01T17:31:49.246Z,1.00
2022-08-01T17:34:16.661Z,0.70
2022-08-01T17:36:43.751Z,1.02
2022-08-01T17:39:13.413Z,0.90
2022-08-01T17:41:41.518Z,0.90
2022-08-01T17:44:09.107Z,0.73
2022-08-01T17:46:36.315Z,0.80
2022-08-01T17:49:05.860Z,0.65
2022-08-01T17:51:32.950Z,1.00
2022-08-01T17:54:00.441Z,0.98
2022-08-01T17:56:27.830Z,0.90
2022-08-01T17:58:55.203Z,0.88
2022-08-01T18:01:27.077Z,0.70
2022-08-01T18:03:57.640Z,1.00
2022-08-01T18:06:25.983Z,1.20
2022-08-01T18:08:55.558Z,0.88
2022-08-01T18:11:27.463Z,0.82
2022-08-01T18:13:59.743Z,1.00
2022-08-01T18:16:27.520Z,0.80
2022-08-01T18:18:55.998Z,1.00
2022-08-01T18:21:23.129Z,0.70
2022-08-01T18:23:51.660Z,0.85
2022-08-01T18:26:21.188Z,1.10
2022-08-01T18:28:48.330Z,0.90
2022-08-01T18:31:17.722Z,1.00
2022-08-01T18:33:46.073Z,1.30
2022-08-01T18:36:17.823Z,0.93
2022-08-01T18:39:01.920Z,0.90
2022-08-01T18:41:33.371Z,1.25
2022-08-01T18:44:05.467Z,0.90
2022-08-01T18:46:39.900Z,1.08
2022-08-01T18:49:09.208Z,0.70
2022-08-01T18:51:43.422Z,0.88
2022-08-01T18:54:12.061Z,1.00
2022-08-01T18:56:39.325Z,1.13
2022-08-01T18:59:06.782Z,0.90
2022-08-01T19:01:34.079Z,0.80
2022-08-01T19:04:01.474Z,1.00
2022-08-01T19:06:28.833Z,1.10
2022-08-01T19:08:59.862Z,1.10
2022-08-01T19:11:30.896Z,1.00
2022-08-01T19:13:58.424Z,1.00
2022-08-01T19:16:27.434Z,1.13
2022-08-01T19:18:54.684Z,1.20
2022-08-01T19:21:22.969Z,1.13
2022-08-01T19:24:09.083Z,1.48
2022-08-01T19:26:37.164Z,1.15
2022-08-01T19:29:35.111Z,1.00
2022-08-01T19:32:05.964Z,0.90
2022-08-01T19:34:42.517Z,1.10
2022-08-01T19:37:10.061Z,1.35
2022-08-01T19:39:37.491Z,1.30
2022-08-01T19:42:05.530Z,1.38
2022-08-01T19:44:34.355Z,1.17
2022-08-01T19:47:02.662Z,1.27
2022-08-01T19:49:29.782Z,1.00
2022-08-01T19:52:01.699Z,1.20
2022-08-01T19:54:35.505Z,1.40
2022-08-01T19:57:07.960Z,1.00
2022-08-01T19:59:36.887Z,1.00
2022-08-01T20:02:05.633Z,1.15
2022-08-01T20:04:33.867Z,1.30
2022-08-01T20:07:02.916Z,1.35
2022-08-01T20:09:31.815Z,1.25
2022-08-01T20:11:58.782Z,1.30
2022-08-01T20:14:27.159Z,1.40
2022-08-01T20:16:56.312Z,1.67
2022-08-01T20:19:25.622Z,1.20
2022-08-01T20:22:04.482Z,1.30
2022-08-01T20:24:49.859Z,1.73
2022-08-01T20:27:18.726Z,1.20
2022-08-01T20:29:47.926Z,1.20
2022-08-01T20:32:16.583Z,1.30
2022-08-01T20:34:43.966Z,1.45
2022-08-01T20:37:13.273Z,1.55
2022-08-01T20:39:44.198Z,1.73
2022-08-01T20:42:13.964Z,1.40
2022-08-01T20:44:42.635Z,1.27
2022-08-01T20:47:10.080Z,1.30
2022-08-01T20:49:37.768Z,1.08
2022-08-01T20:52:11.789Z,1.30
2022-08-01T20:54:43.072Z,1.20
2022-08-01T20:57:30.910Z,1.35
2022-08-01T21:00:05.303Z,1.45
2022-08-01T21:03:02.631Z,1.38
2022-08-01T21:05:42.764Z,1.60
2022-08-01T21:08:41.638Z,1.20
2022-08-01T21:11:21.879Z,1.50
2022-08-01T21:13:50.984Z,1.58
2022-08-01T21:16:30.200Z,1.85
2022-08-01T21:19:21.898Z,1.40
2022-08-01T21:22:06.865Z,1.58
2022-08-01T21:24:59.104Z,1.60
2022-08-01T21:27:33.443Z,2.15
2022-08-01T21:30:05.095Z,1.35
2022-08-01T21:32:34.718Z,1.45
2022-08-01T21:35:04.628Z,1.80
2022-08-01T21:37:32.153Z,1.35
2022-08-01T21:40:02.704Z,1.50
2022-08-01T21:42:39.517Z,1.60
2022-08-01T21:45:09.520Z,1.90
2022-08-01T21:50:05.468Z,1.38
2022-08-01T21:52:44.041Z,1.88
2022-08-01T21:55:34.005Z,1.88
2022-08-01T21:58:41.740Z,1.60
2022-08-01T22:01:52.654Z,2.00
2022-08-01T22:04:55.731Z,1.98
2022-08-01T22:07:25.435Z,2.80
2022-08-01T22:09:55.427Z,2.38
2022-08-01T22:14:53.998Z,2.00
2022-08-01T22:17:23.491Z,2.20
2022-08-01T22:19:54.018Z,2.88
2022-08-01T22:22:34.216Z,1.85
2022-08-01T22:25:14.085Z,2.40
2022-08-01T22:28:02.893Z,2.70
2022-08-01T22:33:15.805Z,2.50
2022-08-01T22:35:52.775Z,2.50
2022-08-01T22:38:22.762Z,2.88
2022-08-01T22:40:58.450Z,2.40
2022-08-01T22:43:49.026Z,2.60
2022-08-01T22:46:32.785Z,2.67
2022-08-01T22:49:30.715Z,2.78
2022-08-01T22:52:13.346Z,2.88
2022-08-01T22:54:43.912Z,3.05
2022-08-01T22:57:50.868Z,2.85
2022-08-01T23:00:18.320Z,2.95
2022-08-01T23:03:03.989Z,3.05
2022-08-01T23:05:34.275Z,2.85
2022-08-01T23:08:04.868Z,2.83
2022-08-01T23:10:38.421Z,2.83
2022-08-01T23:13:06.360Z,3.50
2022-08-01T23:15:35.352Z,3.10
2022-08-01T23:18:06.513Z,3.22
2022-08-01T23:20:35.292Z,3.30
2022-08-01T23:23:04.201Z,3.30
2022-08-01T23:25:33.991Z,3.08
2022-08-01T23:28:05.098Z,3.38
2022-08-01T23:30:35.318Z,3.55
2022-08-01T23:33:02.907Z,3.63
2022-08-01T23:35:30.426Z,3.17
2022-08-01T23:38:01.803Z,3.67
2022-08-01T23:40:34.063Z,3.58
2022-08-01T23:43:03.695Z,3.83
2022-08-01T23:46:02.102Z,4.18
2022-08-01T23:48:19.187Z,3.80
2022-08-01T23:50:46.217Z,3.75
2022-08-01T23:53:13.426Z,3.88
2022-08-01T23:55:40.699Z,3.80
2022-08-01T23:58:11.442Z,3.45
